Time;durP1;ratioP1;P1;durP2;ratioP2;P2;SDS_P1;SDS_P2;PMS_P1;PMS_P2;Temp;Humidity;BMP_temperature;BMP_pressure;BME280_temperature;BME280_humidity;BME280_pressure;Samples;Min_cycle;Max_cycle;Signal;HPM_P1;HPM_P2
2021/07/03 00:00:55;;;;;;;9.13;5.33;;;;;;;;;;10390442;28;20217;-72
2021/07/03 00:05:58;;;;;;;10.30;5.50;;;;;;;;;;10414486;28;20297;-72
2021/07/03 00:11:06;;;;;;;10.10;5.73;;;;;;;;;;10389396;28;20461;-71
2021/07/03 00:16:10;;;;;;;10.33;5.80;;;;;;;;;;10396066;28;20538;-72
2021/07/03 00:21:12;;;;;;;9.53;5.03;;;;;;;;;;10403238;28;20301;-71
2021/07/03 00:26:15;;;;;;;10.50;5.53;;;;;;;;;;10401532;28;20185;-72
2021/07/03 00:31:19;;;;;;;10.33;5.37;;;;;;;;;;10393424;28;20225;-71
2021/07/03 00:36:22;;;;;;;11.73;5.80;;;;;;;;;;10407132;28;20217;-71
2021/07/03 00:41:24;;;;;;;11.67;5.90;;;;;;;;;;10408726;28;20217;-70
2021/07/03 00:46:28;;;;;;;9.97;5.77;;;;;;;;;;10406228;28;20200;-71
2021/07/03 00:51:31;;;;;;;11.57;5.70;;;;;;;;;;10401365;28;20221;-71
2021/07/03 00:56:34;;;;;;;10.80;6.00;;;;;;;;;;10406557;28;20488;-69
2021/07/03 01:01:37;;;;;;;10.83;6.07;;;;;;;;;;10390082;28;20223;-69
2021/07/03 01:06:40;;;;;;;11.87;5.97;;;;;;;;;;10408121;28;20216;-70
2021/07/03 01:11:43;;;;;;;11.33;6.10;;;;;;;;;;10409554;28;20217;-70
2021/07/03 01:16:47;;;;;;;11.43;6.27;;;;;;;;;;10411486;28;20253;-71
2021/07/03 01:21:52;;;;;;;9.90;5.77;;;;;;;;;;10401855;28;20248;-71
2021/07/03 01:26:56;;;;;;;11.50;6.00;;;;;;;;;;10402425;28;20205;-71
2021/07/03 01:31:59;;;;;;;10.40;5.60;;;;;;;;;;10409176;28;20209;-69
2021/07/03 01:37:04;;;;;;;10.67;5.43;;;;;;;;;;10406422;28;20649;-70
2021/07/03 01:42:07;;;;;;;11.40;6.00;;;;;;;;;;10408795;28;20233;-69
2021/07/03 01:47:10;;;;;;;10.50;5.90;;;;;;;;;;10406284;28;20565;-70
2021/07/03 01:52:17;;;;;;;12.83;6.13;;;;;;;;;;10402539;28;20550;-70
2021/07/03 01:57:19;;;;;;;11.63;6.30;;;;;;;;;;10403460;28;20228;-70
2021/07/03 02:02:22;;;;;;;11.13;6.00;;;;;;;;;;10405453;28;20218;-70
2021/07/03 02:07:26;;;;;;;11.87;6.60;;;;;;;;;;10400774;28;20189;-69
2021/07/03 02:12:29;;;;;;;11.43;6.40;;;;;;;;;;10409682;28;20209;-71
2021/07/03 02:17:31;;;;;;;12.13;6.80;;;;;;;;;;10408797;28;20209;-70
2021/07/03 02:22:36;;;;;;;11.83;6.47;;;;;;;;;;10406220;28;20642;-71
2021/07/03 02:27:39;;;;;;;12.53;6.60;;;;;;;;;;10408206;28;20198;-71
2021/07/03 02:32:42;;;;;;;12.13;6.37;;;;;;;;;;10399717;28;20228;-69
2021/07/03 02:37:46;;;;;;;10.37;6.37;;;;;;;;;;10404829;28;20297;-71
2021/07/03 02:42:49;;;;;;;11.00;6.47;;;;;;;;;;10386648;28;20221;-70
2021/07/03 02:47:51;;;;;;;13.73;6.90;;;;;;;;;;10406225;28;20805;-71
2021/07/03 02:52:55;;;;;;;10.70;6.07;;;;;;;;;;10404228;28;20578;-71
2021/07/03 02:57:58;;;;;;;13.00;6.40;;;;;;;;;;10412089;28;20198;-69
2021/07/03 03:03:01;;;;;;;11.50;6.13;;;;;;;;;;10417066;28;20718;-71
2021/07/03 03:08:05;;;;;;;12.23;7.00;;;;;;;;;;10405748;28;20193;-70
2021/07/03 03:13:07;;;;;;;12.77;6.83;;;;;;;;;;10405586;28;20727;-70
2021/07/03 03:18:10;;;;;;;12.77;7.07;;;;;;;;;;10402124;28;20284;-70
2021/07/03 03:23:14;;;;;;;12.77;6.93;;;;;;;;;;10401017;28;20332;-72
2021/07/03 03:28:17;;;;;;;11.90;6.23;;;;;;;;;;10411923;28;20238;-71
2021/07/03 03:33:19;;;;;;;10.87;6.47;;;;;;;;;;10413141;28;20221;-70
2021/07/03 03:38:44;;;;;;;12.03;6.20;;;;;;;;;;10405646;28;20277;-70
2021/07/03 03:43:46;;;;;;;10.23;5.90;;;;;;;;;;10411508;28;20289;-70
2021/07/03 03:48:49;;;;;;;11.43;6.20;;;;;;;;;;10410648;28;20186;-70
2021/07/03 03:53:53;;;;;;;13.33;6.13;;;;;;;;;;10411829;28;20248;-70
2021/07/03 03:58:56;;;;;;;13.03;6.27;;;;;;;;;;10403253;28;20296;-71
2021/07/03 04:03:59;;;;;;;11.27;5.90;;;;;;;;;;10408427;28;20224;-70
2021/07/03 04:09:03;;;;;;;11.63;5.97;;;;;;;;;;10413389;28;20240;-70
2021/07/03 04:14:05;;;;;;;11.90;5.90;;;;;;;;;;10407506;28;20209;-71
2021/07/03 04:19:28;;;;;;;13.03;6.10;;;;;;;;;;10407934;28;20214;-71
2021/07/03 04:24:32;;;;;;;12.17;6.07;;;;;;;;;;10407079;28;20285;-72
2021/07/03 04:29:34;;;;;;;11.37;6.07;;;;;;;;;;10388758;28;20264;-71
2021/07/03 04:34:37;;;;;;;11.77;6.40;;;;;;;;;;10382963;28;20213;-72
2021/07/03 04:39:41;;;;;;;10.87;6.07;;;;;;;;;;10396848;28;20193;-69
2021/07/03 04:44:44;;;;;;;10.40;6.27;;;;;;;;;;10409864;28;20219;-70
2021/07/03 04:49:46;;;;;;;11.57;6.20;;;;;;;;;;10406550;28;20220;-70
2021/07/03 04:54:50;;;;;;;12.93;7.00;;;;;;;;;;10413846;28;20212;-70
2021/07/03 04:59:53;;;;;;;11.10;6.40;;;;;;;;;;10410784;28;20278;-70
2021/07/03 05:04:55;;;;;;;11.30;6.17;;;;;;;;;;10407369;28;20270;-70
2021/07/03 05:09:59;;;;;;;10.80;5.73;;;;;;;;;;10404712;28;20281;-71
2021/07/03 05:15:02;;;;;;;10.63;5.73;;;;;;;;;;10401904;28;20198;-70
2021/07/03 05:20:07;;;;;;;9.97;5.83;;;;;;;;;;10405863;28;20277;-69
2021/07/03 05:25:12;;;;;;;11.03;5.50;;;;;;;;;;10388359;28;20214;-70
2021/07/03 05:30:15;;;;;;;9.60;5.20;;;;;;;;;;10405225;28;20213;-71
2021/07/03 05:35:17;;;;;;;9.97;5.80;;;;;;;;;;10407786;28;20224;-70
2021/07/03 05:40:21;;;;;;;10.03;5.30;;;;;;;;;;10406288;28;20218;-71
2021/07/03 05:45:24;;;;;;;10.53;5.67;;;;;;;;;;10404359;28;20214;-71
2021/07/03 05:50:27;;;;;;;10.07;5.80;;;;;;;;;;10407342;28;20224;-71
2021/07/03 05:55:31;;;;;;;10.67;5.43;;;;;;;;;;10413961;28;20214;-72
2021/07/03 06:00:34;;;;;;;10.73;5.47;;;;;;;;;;10418227;28;20289;-71
2021/07/03 06:05:36;;;;;;;8.83;4.40;;;;;;;;;;10415833;28;20216;-71
2021/07/03 06:10:40;;;;;;;9.20;4.80;;;;;;;;;;10416188;28;20296;-71
2021/07/03 06:15:43;;;;;;;8.70;4.77;;;;;;;;;;10420839;28;20665;-71
2021/07/03 06:20:46;;;;;;;9.17;4.83;;;;;;;;;;10415294;28;20237;-72
2021/07/03 06:25:51;;;;;;;9.30;4.50;;;;;;;;;;10406423;28;20217;-72
2021/07/03 06:30:54;;;;;;;9.77;5.00;;;;;;;;;;10410661;28;20554;-73
2021/07/03 06:35:57;;;;;;;9.43;5.17;;;;;;;;;;10394601;28;20182;-73
2021/07/03 06:41:01;;;;;;;9.00;5.10;;;;;;;;;;10414359;28;20244;-72
2021/07/03 06:46:03;;;;;;;8.57;4.43;;;;;;;;;;10399858;28;20573;-71
2021/07/03 06:51:07;;;;;;;8.67;4.70;;;;;;;;;;10407194;28;20220;-72
2021/07/03 06:56:11;;;;;;;8.40;3.97;;;;;;;;;;10405134;28;20232;-72
2021/07/03 07:01:14;;;;;;;9.03;4.53;;;;;;;;;;10411269;28;20217;-72
2021/07/03 07:06:17;;;;;;;8.90;4.37;;;;;;;;;;10408851;28;20198;-72
2021/07/03 07:11:20;;;;;;;8.17;3.97;;;;;;;;;;10410780;28;20748;-69
2021/07/03 07:16:23;;;;;;;9.53;4.43;;;;;;;;;;10408251;28;20535;-73
2021/07/03 07:21:26;;;;;;;8.57;4.07;;;;;;;;;;10424974;28;20680;-73
2021/07/03 07:26:30;;;;;;;8.27;4.60;;;;;;;;;;10412898;28;20217;-72
2021/07/03 07:31:33;;;;;;;7.90;4.37;;;;;;;;;;10405852;28;20222;-73
2021/07/03 07:36:35;;;;;;;7.83;3.60;;;;;;;;;;10389308;28;20209;-72
2021/07/03 07:41:39;;;;;;;8.23;4.40;;;;;;;;;;10407434;28;20704;-71
2021/07/03 07:46:42;;;;;;;8.23;4.03;;;;;;;;;;10409425;28;20217;-72
2021/07/03 07:51:45;;;;;;;8.73;4.23;;;;;;;;;;10407260;28;20309;-72
2021/07/03 07:56:49;;;;;;;8.20;4.37;;;;;;;;;;10417508;28;20198;-72
2021/07/03 08:01:52;;;;;;;7.43;4.15;;;;;;;;;;10406405;28;20224;-72
2021/07/03 08:06:54;;;;;;;6.93;4.10;;;;;;;;;;10408947;28;20578;-70
2021/07/03 08:11:58;;;;;;;8.70;4.97;;;;;;;;;;10405457;28;20241;-70
2021/07/03 08:17:01;;;;;;;7.47;4.20;;;;;;;;;;10410820;28;20238;-71
2021/07/03 08:22:04;;;;;;;7.68;4.70;;;;;;;;;;10407659;28;20288;-71
2021/07/03 08:27:08;;;;;;;7.00;4.47;;;;;;;;;;10402769;28;20229;-72
2021/07/03 08:32:10;;;;;;;7.65;4.30;;;;;;;;;;10395438;28;20233;-72
2021/07/03 08:37:13;;;;;;;7.57;4.95;;;;;;;;;;10414179;28;20213;-72
2021/07/03 08:42:17;;;;;;;6.97;4.63;;;;;;;;;;10408495;28;20217;-73
2021/07/03 08:47:20;;;;;;;6.85;4.53;;;;;;;;;;10413642;28;20197;-72
2021/07/03 08:52:23;;;;;;;8.00;4.57;;;;;;;;;;10413796;28;20225;-71
2021/07/03 08:57:27;;;;;;;5.88;4.30;;;;;;;;;;10386871;28;20261;-71
2021/07/03 09:02:33;;;;;;;6.88;4.70;;;;;;;;;;10409137;28;20657;-72
2021/07/03 09:07:36;;;;;;;7.18;4.70;;;;;;;;;;10413018;28;20221;-72
2021/07/03 09:12:40;;;;;;;6.50;4.43;;;;;;;;;;10411711;28;20213;-72
2021/07/03 09:17:48;;;;;;;7.45;5.00;;;;;;;;;;10416865;28;20204;-72
2021/07/03 09:22:50;;;;;;;7.35;4.70;;;;;;;;;;10405966;28;20587;-72
2021/07/03 09:27:55;;;;;;;7.28;4.80;;;;;;;;;;10421138;28;20189;-72
2021/07/03 09:32:59;;;;;;;8.60;7.25;;;;;;;;;;10405827;28;20285;-71
2021/07/03 09:38:03;;;;;;;8.00;5.10;;;;;;;;;;10399392;28;20198;-71
2021/07/03 09:43:08;;;;;;;8.23;4.68;;;;;;;;;;10416420;28;20209;-71
2021/07/03 09:48:12;;;;;;;10.85;7.18;;;;;;;;;;10415097;28;20199;-71
2021/07/03 09:53:15;;;;;;;6.70;4.72;;;;;;;;;;10414857;28;20265;-72
2021/07/03 09:58:19;;;;;;;7.18;4.93;;;;;;;;;;10412337;28;20222;-71
2021/07/03 10:03:22;;;;;;;7.22;5.65;;;;;;;;;;10417969;28;20235;-73
2021/07/03 10:08:25;;;;;;;7.63;5.53;;;;;;;;;;10407838;28;20197;-73
2021/07/03 10:13:31;;;;;;;7.30;5.50;;;;;;;;;;10408842;28;20289;-72
2021/07/03 10:18:33;;;;;;;7.78;5.30;;;;;;;;;;10392394;28;20205;-72
2021/07/03 10:23:37;;;;;;;8.63;6.13;;;;;;;;;;10406326;28;20243;-73
2021/07/03 10:28:42;;;;;;;8.18;5.70;;;;;;;;;;10415742;28;20614;-70
2021/07/03 10:33:47;;;;;;;7.68;5.10;;;;;;;;;;10414407;28;20204;-72
2021/07/03 10:38:49;;;;;;;7.85;5.32;;;;;;;;;;10424824;28;20256;-72
2021/07/03 10:43:55;;;;;;;6.65;5.10;;;;;;;;;;10420740;28;20204;-72
2021/07/03 10:48:58;;;;;;;10.85;9.70;;;;;;;;;;10421560;28;20185;-72
2021/07/03 10:54:12;;;;;;;7.00;5.22;;;;;;;;;;10414097;28;20296;-72
2021/07/03 10:59:17;;;;;;;7.03;4.80;;;;;;;;;;10415923;28;20223;-71
2021/07/03 11:04:20;;;;;;;5.05;4.22;;;;;;;;;;10414310;28;20752;-72
2021/07/03 11:09:26;;;;;;;6.75;4.43;;;;;;;;;;10419578;28;20230;-72
2021/07/03 11:14:30;;;;;;;5.93;3.92;;;;;;;;;;10405188;28;20217;-73
2021/07/03 11:19:32;;;;;;;6.35;4.53;;;;;;;;;;10420777;28;20205;-71
2021/07/03 11:24:45;;;;;;;6.82;4.63;;;;;;;;;;10424635;28;20213;-72
2021/07/03 11:29:49;;;;;;;6.50;4.53;;;;;;;;;;10418005;28;20225;-73
2021/07/03 11:34:53;;;;;;;5.63;4.43;;;;;;;;;;10420803;28;20205;-73
2021/07/03 11:39:56;;;;;;;5.70;4.38;;;;;;;;;;10422869;28;20655;-72
2021/07/03 11:45:01;;;;;;;6.63;4.63;;;;;;;;;;10422857;28;20200;-72
2021/07/03 11:50:04;;;;;;;7.63;5.25;;;;;;;;;;10409331;28;20214;-71
2021/07/03 11:55:08;;;;;;;7.28;5.10;;;;;;;;;;10417987;28;20209;-71
2021/07/03 12:00:13;;;;;;;7.88;5.78;;;;;;;;;;10405709;28;20225;-71
2021/07/03 12:05:21;;;;;;;7.03;4.50;;;;;;;;;;10410136;28;20304;-71
2021/07/03 12:10:31;;;;;;;7.32;5.75;;;;;;;;;;10408702;28;20218;-71
2021/07/03 12:15:35;;;;;;;7.70;5.50;;;;;;;;;;10407463;28;20297;-70
2021/07/03 12:20:38;;;;;;;11.38;8.50;;;;;;;;;;10408391;28;20305;-71
2021/07/03 12:25:41;;;;;;;6.50;4.50;;;;;;;;;;10414248;28;20212;-71
2021/07/03 12:30:46;;;;;;;6.70;4.50;;;;;;;;;;10416204;28;20225;-71
2021/07/03 12:35:52;;;;;;;6.78;4.20;;;;;;;;;;10416578;28;20292;-71
2021/07/03 12:40:56;;;;;;;9.23;4.57;;;;;;;;;;10417826;28;20220;-70
2021/07/03 12:46:00;;;;;;;7.07;4.35;;;;;;;;;;10421201;28;20700;-71
2021/07/03 12:51:04;;;;;;;6.95;4.38;;;;;;;;;;10392149;28;20221;-71
2021/07/03 12:56:08;;;;;;;7.38;4.65;;;;;;;;;;10413362;28;20186;-71
2021/07/03 13:01:12;;;;;;;7.18;4.00;;;;;;;;;;10419584;28;20310;-71
2021/07/03 13:06:15;;;;;;;7.80;4.93;;;;;;;;;;10419371;28;20210;-71
2021/07/03 13:11:17;;;;;;;7.43;4.03;;;;;;;;;;10413785;28;20380;-71
2021/07/03 13:16:21;;;;;;;9.90;6.53;;;;;;;;;;10409684;28;20204;-71
2021/07/03 13:21:24;;;;;;;6.55;4.30;;;;;;;;;;10417624;28;20712;-71
2021/07/03 13:26:26;;;;;;;7.22;4.47;;;;;;;;;;10411579;28;20767;-71
2021/07/03 13:31:30;;;;;;;7.65;4.78;;;;;;;;;;10417145;28;20689;-71
2021/07/03 13:36:33;;;;;;;6.80;4.30;;;;;;;;;;10413796;28;20284;-71
2021/07/03 13:41:36;;;;;;;6.93;4.30;;;;;;;;;;10415807;28;20281;-70
2021/07/03 13:46:40;;;;;;;7.15;4.05;;;;;;;;;;10415028;28;20693;-72
2021/07/03 13:51:43;;;;;;;6.05;3.50;;;;;;;;;;10420063;28;20221;-71
2021/07/03 13:56:45;;;;;;;9.77;5.40;;;;;;;;;;10405786;28;20270;-71
2021/07/03 14:01:49;;;;;;;5.25;3.65;;;;;;;;;;10419169;28;20286;-71
2021/07/03 14:06:52;;;;;;;5.93;3.63;;;;;;;;;;10413540;28;20582;-71
2021/07/03 14:11:55;;;;;;;6.93;3.63;;;;;;;;;;10408486;28;20332;-72
2021/07/03 14:16:59;;;;;;;7.22;3.63;;;;;;;;;;10416494;28;20197;-69
2021/07/03 14:22:02;;;;;;;5.55;3.65;;;;;;;;;;10410356;28;20217;-70
2021/07/03 14:27:05;;;;;;;6.32;3.50;;;;;;;;;;10403288;28;20234;-72
2021/07/03 14:32:09;;;;;;;6.63;3.65;;;;;;;;;;10412737;28;20252;-69
2021/07/03 14:37:12;;;;;;;6.93;3.75;;;;;;;;;;10418271;28;20212;-72
2021/07/03 14:42:16;;;;;;;6.75;3.50;;;;;;;;;;10413943;28;20213;-72
2021/07/03 14:47:20;;;;;;;5.85;3.15;;;;;;;;;;10421427;28;20248;-71
2021/07/03 14:52:23;;;;;;;6.28;3.42;;;;;;;;;;10419703;28;20222;-73
2021/07/03 14:57:25;;;;;;;5.60;3.58;;;;;;;;;;10418398;28;20635;-71
2021/07/03 15:02:29;;;;;;;6.53;3.40;;;;;;;;;;10421628;28;20285;-72
2021/07/03 15:07:32;;;;;;;6.13;3.42;;;;;;;;;;10412159;28;20206;-73
2021/07/03 15:12:35;;;;;;;6.20;3.53;;;;;;;;;;10416497;28;20209;-72
2021/07/03 15:17:39;;;;;;;6.07;3.45;;;;;;;;;;10413554;28;20630;-72
2021/07/03 15:22:43;;;;;;;6.03;3.50;;;;;;;;;;10425970;28;20221;-73
2021/07/03 15:27:47;;;;;;;5.95;3.30;;;;;;;;;;10422650;28;20244;-73
2021/07/03 15:32:53;;;;;;;6.70;3.67;;;;;;;;;;10423943;28;20224;-73
2021/07/03 15:37:57;;;;;;;7.05;3.70;;;;;;;;;;10420168;28;20189;-72
2021/07/03 15:43:00;;;;;;;9.07;5.47;;;;;;;;;;10418173;28;20639;-73
2021/07/03 15:48:05;;;;;;;8.88;5.72;;;;;;;;;;10418813;28;20220;-72
2021/07/03 15:53:10;;;;;;;5.55;3.50;;;;;;;;;;10396627;28;20213;-72
2021/07/03 15:58:13;;;;;;;6.03;3.30;;;;;;;;;;10420894;28;20284;-72
2021/07/03 16:03:17;;;;;;;6.93;3.60;;;;;;;;;;10422197;28;20217;-72
2021/07/03 16:08:19;;;;;;;6.88;3.70;;;;;;;;;;10389649;28;20676;-72
2021/07/03 16:13:22;;;;;;;5.70;3.60;;;;;;;;;;10413448;28;20221;-72
2021/07/03 16:18:26;;;;;;;6.57;4.20;;;;;;;;;;10418140;28;20976;-72
2021/07/03 16:23:28;;;;;;;6.15;3.20;;;;;;;;;;10418117;28;20221;-72
2021/07/03 16:28:32;;;;;;;5.45;3.20;;;;;;;;;;10419693;28;20220;-72
2021/07/03 16:33:36;;;;;;;7.10;3.42;;;;;;;;;;10421432;28;20271;-71
2021/07/03 16:38:39;;;;;;;8.93;3.90;;;;;;;;;;10421844;28;20221;-73
2021/07/03 16:43:41;;;;;;;6.03;3.70;;;;;;;;;;10419612;28;20209;-71
2021/07/03 16:48:45;;;;;;;7.28;3.95;;;;;;;;;;10421839;28;20222;-71
2021/07/03 16:53:48;;;;;;;6.93;3.58;;;;;;;;;;10416764;28;20267;-72
2021/07/03 16:58:50;;;;;;;7.55;3.88;;;;;;;;;;10417680;28;20194;-73
2021/07/03 17:03:54;;;;;;;6.95;4.15;;;;;;;;;;10417980;28;20226;-73
2021/07/03 17:08:57;;;;;;;6.75;3.67;;;;;;;;;;10403349;28;20206;-72
2021/07/03 17:13:59;;;;;;;8.02;4.15;;;;;;;;;;10390420;28;20329;-72
2021/07/03 17:19:04;;;;;;;7.00;3.90;;;;;;;;;;10406979;28;20426;-72
2021/07/03 17:24:06;;;;;;;6.60;3.80;;;;;;;;;;10410318;28;20222;-72
2021/07/03 17:29:09;;;;;;;7.63;3.95;;;;;;;;;;10413199;28;20238;-72
2021/07/03 17:34:13;;;;;;;7.18;3.78;;;;;;;;;;10403308;28;20712;-72
2021/07/03 17:39:16;;;;;;;8.98;4.32;;;;;;;;;;10394948;28;20190;-72
2021/07/03 17:44:18;;;;;;;7.18;3.75;;;;;;;;;;10404838;28;20241;-72
2021/07/03 17:49:22;;;;;;;7.35;3.75;;;;;;;;;;10416724;28;20218;-71
2021/07/03 17:54:28;;;;;;;7.05;3.75;;;;;;;;;;10416727;28;20252;-72
2021/07/03 17:59:31;;;;;;;8.68;4.35;;;;;;;;;;10406736;28;20213;-72
2021/07/03 18:04:35;;;;;;;7.40;3.83;;;;;;;;;;10405095;28;20205;-71
2021/07/03 18:09:39;;;;;;;8.07;4.18;;;;;;;;;;10404858;28;20297;-70
2021/07/03 18:14:42;;;;;;;7.40;4.32;;;;;;;;;;10402515;28;20206;-71
2021/07/03 18:19:46;;;;;;;7.15;4.35;;;;;;;;;;10407199;28;20218;-71
2021/07/03 18:24:49;;;;;;;8.77;4.07;;;;;;;;;;10392753;28;20224;-71
2021/07/03 18:29:51;;;;;;;7.68;4.10;;;;;;;;;;10409019;28;20211;-72
2021/07/03 18:34:55;;;;;;;8.13;4.03;;;;;;;;;;10405650;28;20646;-72
2021/07/03 18:39:58;;;;;;;7.55;4.07;;;;;;;;;;10409268;28;20193;-72
2021/07/03 18:45:00;;;;;;;8.32;4.65;;;;;;;;;;10407300;28;20198;-71
2021/07/03 18:50:06;;;;;;;8.20;4.40;;;;;;;;;;10404771;28;20281;-71
2021/07/03 18:55:09;;;;;;;8.60;4.20;;;;;;;;;;10399395;28;20233;-71
2021/07/03 19:00:13;;;;;;;9.13;4.20;;;;;;;;;;10416025;28;20232;-72
2021/07/03 19:05:17;;;;;;;8.23;4.15;;;;;;;;;;10420548;28;20189;-70
2021/07/03 19:10:19;;;;;;;7.90;4.20;;;;;;;;;;10409620;28;20217;-70
2021/07/03 19:15:23;;;;;;;9.15;4.88;;;;;;;;;;10412576;28;20211;-72
2021/07/03 19:20:27;;;;;;;9.27;4.83;;;;;;;;;;10415219;28;20217;-72
2021/07/03 19:25:29;;;;;;;10.57;5.30;;;;;;;;;;10394746;28;20208;-73
2021/07/03 19:30:32;;;;;;;9.30;5.27;;;;;;;;;;10405001;28;20221;-73
2021/07/03 19:35:37;;;;;;;8.93;5.17;;;;;;;;;;10407997;28;20213;-73
2021/07/03 19:40:40;;;;;;;9.50;4.80;;;;;;;;;;10423987;28;20225;-72
2021/07/03 19:45:43;;;;;;;8.03;4.47;;;;;;;;;;10429620;28;20239;-73
2021/07/03 19:50:47;;;;;;;8.87;5.20;;;;;;;;;;10425441;28;20239;-72
2021/07/03 19:55:49;;;;;;;9.50;5.47;;;;;;;;;;10421873;28;20235;-72
2021/07/03 20:00:52;;;;;;;10.10;4.80;;;;;;;;;;10401339;28;20209;-72
2021/07/03 20:05:57;;;;;;;9.37;4.90;;;;;;;;;;10422545;28;20650;-73
2021/07/03 20:11:00;;;;;;;9.50;4.80;;;;;;;;;;10419690;28;20222;-72
2021/07/03 20:16:03;;;;;;;9.10;5.17;;;;;;;;;;10423797;28;20232;-73
2021/07/03 20:21:07;;;;;;;6.70;3.63;;;;;;;;;;10424263;28;20257;-72
2021/07/03 20:26:10;;;;;;;8.17;4.03;;;;;;;;;;10389210;28;20225;-72
2021/07/03 20:31:12;;;;;;;7.27;3.90;;;;;;;;;;10425901;28;20237;-71
2021/07/03 20:36:17;;;;;;;7.37;3.93;;;;;;;;;;10395337;28;20225;-72
2021/07/03 20:41:19;;;;;;;6.43;2.83;;;;;;;;;;10408008;28;20218;-71
2021/07/03 20:46:22;;;;;;;7.03;3.67;;;;;;;;;;10398035;28;20703;-70
2021/07/03 20:51:26;;;;;;;7.17;3.07;;;;;;;;;;10419491;28;20772;-71
2021/07/03 20:56:29;;;;;;;7.33;3.80;;;;;;;;;;10421213;28;20845;-71
2021/07/03 21:01:31;;;;;;;7.20;3.67;;;;;;;;;;10419640;28;20296;-71
2021/07/03 21:06:36;;;;;;;8.63;4.33;;;;;;;;;;10431471;28;20213;-72
2021/07/03 21:11:38;;;;;;;6.17;3.00;;;;;;;;;;10421871;28;20217;-71
2021/07/03 21:16:41;;;;;;;10.03;4.40;;;;;;;;;;10418732;28;20252;-71
2021/07/03 21:21:45;;;;;;;8.10;4.70;;;;;;;;;;10422515;28;20213;-72
2021/07/03 21:26:48;;;;;;;7.80;4.40;;;;;;;;;;10411591;28;20301;-71
2021/07/03 21:31:50;;;;;;;7.87;4.37;;;;;;;;;;10412575;28;20324;-73
2021/07/03 21:36:54;;;;;;;9.20;4.80;;;;;;;;;;10406895;28;20289;-73
2021/07/03 21:41:57;;;;;;;8.50;4.80;;;;;;;;;;10400533;28;20288;-72
2021/07/03 21:47:02;;;;;;;8.33;4.70;;;;;;;;;;10406166;28;20825;-71
2021/07/03 21:52:07;;;;;;;8.33;4.83;;;;;;;;;;10404810;28;20233;-72
2021/07/03 21:57:09;;;;;;;7.93;4.30;;;;;;;;;;10387661;28;20562;-73
2021/07/03 22:02:12;;;;;;;10.17;5.50;;;;;;;;;;10404534;28;20233;-71
2021/07/03 22:07:16;;;;;;;9.07;5.10;;;;;;;;;;10405785;28;20209;-71
2021/07/03 22:12:18;;;;;;;10.50;5.70;;;;;;;;;;10403888;28;20301;-72
2021/07/03 22:17:21;;;;;;;8.80;5.10;;;;;;;;;;10408353;28;20209;-72
2021/07/03 22:22:25;;;;;;;9.13;4.90;;;;;;;;;;10405506;28;20225;-71
2021/07/03 22:27:27;;;;;;;9.37;5.00;;;;;;;;;;10420195;28;20666;-71
2021/07/03 22:32:30;;;;;;;7.87;4.57;;;;;;;;;;10425604;28;20295;-72
2021/07/03 22:37:41;;;;;;;9.17;5.30;;;;;;;;;;10415952;28;20731;-71
2021/07/03 22:42:43;;;;;;;7.97;4.40;;;;;;;;;;10419112;28;20209;-72
2021/07/03 22:47:47;;;;;;;9.13;4.87;;;;;;;;;;10422180;28;20229;-71
2021/07/03 22:52:51;;;;;;;10.07;5.30;;;;;;;;;;10399179;28;20296;-71
2021/07/03 22:57:54;;;;;;;9.03;5.47;;;;;;;;;;10416087;28;20192;-70
2021/07/03 23:02:57;;;;;;;9.87;5.57;;;;;;;;;;10415340;28;20908;-71
2021/07/03 23:08:01;;;;;;;9.50;5.60;;;;;;;;;;10416991;28;20954;-71
2021/07/03 23:13:05;;;;;;;10.30;5.70;;;;;;;;;;10418901;28;20225;-71
2021/07/03 23:18:09;;;;;;;10.80;6.20;;;;;;;;;;10412808;28;20274;-71
2021/07/03 23:23:13;;;;;;;11.13;6.27;;;;;;;;;;10415264;28;20292;-71
2021/07/03 23:28:16;;;;;;;11.53;6.70;;;;;;;;;;10415815;28;20289;-71
2021/07/03 23:33:20;;;;;;;11.73;6.50;;;;;;;;;;10402662;28;20241;-72
2021/07/03 23:38:24;;;;;;;10.63;6.73;;;;;;;;;;10408418;28;20198;-71
2021/07/03 23:43:27;;;;;;;12.03;7.23;;;;;;;;;;10408371;28;20221;-71
2021/07/03 23:48:30;;;;;;;13.13;7.40;;;;;;;;;;10408970;28;20305;-70
2021/07/03 23:53:34;;;;;;;12.93;7.63;;;;;;;;;;10409476;28;20723;-71
2021/07/03 23:58:36;;;;;;;13.70;7.83;;;;;;;;;;10409373;28;20193;-70
